Strona główna
METAR-TAF:

METAR-TAF

Lotnisko :

Port lotniczy Windawa

Windawa, Łotwa

Szerokość geograficzna: 57-21-28N, Długość geograficzna: 021-32-39E, wysokość: 6 m

Aktualna obserwacja pogody

Raport powstał 24 minut temu, godzina 08:20 UTC
Wiatr 7 kt od północ
Temperatura 24°C
Wilgotność 69%
Ciśnienie 1013 hPa
Widzialność 10 km lub więcej
Brak chmur poniżej 1500 m i brak chmur cumulonimbus

METAR: EVVA 160820Z AUTO 36007KT CAVOK 24/18 Q1013

czas: 11:44 (08:44 UTC)


TAF: brakujący

Obserwacja i prognoza pogody dla ponad 4000 lotnisk (raport METAR i TAF).

Dostępne stacje oznaczono żółtymi i czerwonymi punktami na mapie.

Najedź kursorem aby zobaczyć nazwę stacji.

Kliknij aby zobaczyć obserwacje i prognozy pogody.

Aby zmienić mapę: kliknij na zielony przycisk z czarnym krzyżykiem, aby powiększyć; na zielony przycisk z myślnikiem, aby pomniejszyć; na zielone strzałki, aby przejść do map sąsiednich.


METAR-TAF: